GCTS/TFS METAR and TAF weather

Enter ICAO airport designator
Station Type Date Time Source
GCTS METAR 2018/07/21 23:00 UTC NOAA

GCTS 212300Z 06009KT CAVOK 22/16 Q1017 NOSIG


Station Type Date Time Source
GCTS Decoded METAR 2018/07/21 23:00 UTC NOAA

Tenerife Sur, Spain (GCTS) 28-03N 016-34W 77M
Jul 21, 2018 - 07:00 PM EDT / 2018.07.21 2300 UTC
Wind: from the ENE (060 degrees) at 10 MPH (9 KT):0
Visibility: greater than 7 mile(s):0
Temperature: 71 F (22 C)
Dew Point: 60 F (16 C)
Relative Humidity: 68%
Pressure (altimeter): 30.03 in. Hg (1017 hPa)
ob: GCTS 212300Z 06009KT CAVOK 22/16 Q1017 NOSIG
cycle: 23

Station Type Date Time Source
GCTS TAF 2018/07/21 21:31 UTC NOAA

TAF GCTS 212000Z 2121/2221 04010KT CAVOK TX28/2214Z TN21/2205Z PROB40
TEMPO 2121/2210 VRB04KT
BECMG 2208/2210 08020KT


Example: see airport list